»·PEaware :: AAL225 KRNO-KPDX

AAL225 :: KRNO-KPDX

FLIGHT INFORMATION

Flight Status: Arrived
Operator:
American Airlines
More flights by this operator :: More flights under this callsign
Pilot: Michael R. (16974)
Aircraft: AIRBUS A320
(A320)
More flights by this aircraft type
Origin: KRNO Reno/Tahoe Intl
United States
Destination: KPDX Portland Intl
United States
More flights between these airports :: More routes between these airports
Route: ZEFFR6 BLKJK WNDEL J92 LMT GALLO TMBRS2
File this flight plan on PilotEdge
Remarks:
Altitude:
(Current/Filed)
34,000ft
Speed:
(Current/Filed)
436kts
Departed: 04-Aug-18 06:27 PM
Arrived: 04-Aug-18 07:39 PM
Distance/Time
Traveled:
386nm/1:11
Distance/Time
To Go:
Arrived

Flight Plot

Page will automatically refresh every two minutes.

Flight plan parsing failed; only flown route is shown


Map Options




Map Legend


Flown Route
Filed Route
Departure Airport
Arrival Airport
Navaid (VOR, NDB)
Fix

Horizontal Profiles

Position Reports

Time Latitude Longitude Heading Altitude Ground
Speed
04-Aug-18 18:03 39.504467 -119.773258 0 4424ft 0kts
04-Aug-18 18:04 39.504467 -119.773258 0 4424ft 0kts
04-Aug-18 18:05 39.504467 -119.773258 0 4424ft 0kts
04-Aug-18 18:06 39.504467 -119.773258 0 4424ft 0kts
04-Aug-18 18:07 39.504467 -119.773258 0 4424ft 0kts
04-Aug-18 18:08 39.504467 -119.773258 0 4424ft 0kts
04-Aug-18 18:09 39.504467 -119.773258 0 4424ft 0kts
04-Aug-18 18:10 39.504467 -119.773258 0 4424ft 0kts
04-Aug-18 18:11 39.504467 -119.773258 0 4424ft 0kts
04-Aug-18 18:12 39.504467 -119.773258 0 4424ft 0kts
04-Aug-18 18:13 39.504467 -119.773258 0 4424ft 0kts
04-Aug-18 18:14 39.504467 -119.773258 0 4424ft 0kts
04-Aug-18 18:15 39.504467 -119.773258 0 4424ft 0kts
04-Aug-18 18:16 39.504467 -119.773258 0 4424ft 0kts
04-Aug-18 18:17 39.504466 -119.773258 0 4424ft 0kts
04-Aug-18 18:18 39.504113 -119.773307 1 4424ft 2kts
04-Aug-18 18:19 39.503723 -119.773669 95 4424ft 1kts
04-Aug-18 18:20 39.503727 -119.773733 90 4424ft 0kts
04-Aug-18 18:21 39.503727 -119.773733 90 4424ft 0kts
04-Aug-18 18:22 39.503727 -119.773733 90 4424ft 0kts
04-Aug-18 18:23 39.503744 -119.772297 89 4424ft 2kts
04-Aug-18 18:24 39.503744 -119.772274 89 4424ft 0kts
04-Aug-18 18:25 39.505610 -119.771518 359 4424ft 22kts
04-Aug-18 18:26 39.511367 -119.771519 0 4424ft 12kts
04-Aug-18 18:27 39.513634 -119.771276 46 4424ft 6kts
04-Aug-18 18:28 39.510967 -119.769214 179 4424ft 50kts
04-Aug-18 18:29 39.470714 -119.768551 185 5314ft 193kts
04-Aug-18 18:30 39.414082 -119.769064 185 7532ft 238kts
04-Aug-18 18:31 39.339427 -119.768646 174 9892ft 292kts
04-Aug-18 18:32 39.284525 -119.687170 113 13006ft 334kts
04-Aug-18 18:33 39.318524 -119.571241 52 14746ft 396kts
04-Aug-18 18:34 39.395985 -119.457885 39 16024ft 438kts
04-Aug-18 18:35 39.494253 -119.378008 357 18789ft 409kts
04-Aug-18 18:36 39.587923 -119.427903 309 21594ft 356kts
04-Aug-18 18:37 39.663556 -119.510585 309 23943ft 359kts
04-Aug-18 18:38 39.739706 -119.593558 308 26183ft 359kts
04-Aug-18 18:39 39.815567 -119.676416 306 28437ft 354kts
04-Aug-18 18:40 39.884132 -119.751506 305 30512ft 343kts
04-Aug-18 18:41 39.957369 -119.832115 305 31875ft 354kts
04-Aug-18 18:42 40.033107 -119.915534 305 33172ft 360kts
04-Aug-18 18:43 40.110181 -120.000788 304 34063ft 374kts
04-Aug-18 18:44 40.192326 -120.091907 306 34149ft 402kts
04-Aug-18 18:45 40.279805 -120.189183 306 34122ft 425kts
04-Aug-18 18:46 40.370119 -120.289969 306 34120ft 426kts
04-Aug-18 18:47 40.471895 -120.377072 316 34119ft 443kts
04-Aug-18 18:48 40.577542 -120.459625 316 34107ft 442kts
04-Aug-18 18:49 40.683135 -120.542382 316 34111ft 442kts
04-Aug-18 18:50 40.788724 -120.625432 316 34114ft 443kts
04-Aug-18 18:51 40.893548 -120.708188 315 34136ft 444kts
04-Aug-18 18:52 40.980173 -120.776804 316 34146ft 444kts
04-Aug-18 18:53 41.086780 -120.861556 319 34093ft 450kts
04-Aug-18 18:54 41.192798 -120.946135 320 34104ft 456kts
04-Aug-18 18:55 41.301239 -121.032984 321 34129ft 453kts
04-Aug-18 18:56 41.408036 -121.118890 322 34129ft 448kts
04-Aug-18 18:57 41.514194 -121.204593 324 34131ft 447kts
04-Aug-18 18:58 41.620377 -121.290642 324 34131ft 447kts
04-Aug-18 18:59 41.726201 -121.376736 324 34134ft 447kts
04-Aug-18 19:00 41.832173 -121.463287 323 34132ft 447kts
04-Aug-18 19:01 41.938302 -121.550311 324 34130ft 447kts
04-Aug-18 19:02 42.043968 -121.637294 323 34131ft 447kts
04-Aug-18 19:03 42.149783 -121.723672 327 34136ft 450kts
04-Aug-18 19:04 42.265027 -121.790583 332 34137ft 454kts
04-Aug-18 19:05 42.380479 -121.856027 332 34127ft 453kts
04-Aug-18 19:06 42.496559 -121.922046 331 34124ft 453kts
04-Aug-18 19:07 42.612159 -121.988048 331 34127ft 453kts
04-Aug-18 19:08 42.727878 -122.054388 331 34123ft 453kts
04-Aug-18 19:09 42.843608 -122.121002 332 34126ft 453kts
04-Aug-18 19:10 42.959853 -122.183535 338 34079ft 442kts
04-Aug-18 19:11 43.075530 -122.237866 340 34032ft 445kts
04-Aug-18 19:12 43.190592 -122.292087 341 34035ft 446kts
04-Aug-18 19:13 43.304745 -122.346113 341 34046ft 446kts
04-Aug-18 19:14 43.420318 -122.401019 341 34051ft 445kts
04-Aug-18 19:15 43.536965 -122.456729 341 34049ft 445kts
04-Aug-18 19:16 43.653760 -122.512758 340 34057ft 445kts
04-Aug-18 19:17 43.770114 -122.568808 341 34059ft 445kts
04-Aug-18 19:18 43.886342 -122.625031 340 32678ft 440kts
04-Aug-18 19:19 43.992437 -122.676571 339 29844ft 436kts
04-Aug-18 19:20 44.101708 -122.729778 339 26669ft 449kts
04-Aug-18 19:21 44.212465 -122.746784 2 23608ft 446kts
04-Aug-18 19:22 44.332129 -122.735171 2 21135ft 445kts
04-Aug-18 19:23 44.448306 -122.723744 1 19522ft 412kts
04-Aug-18 19:24 44.554853 -122.713241 1 18758ft 362kts
04-Aug-18 19:25 44.651685 -122.703550 1 17281ft 345kts
04-Aug-18 19:26 44.745862 -122.694040 1 15516ft 346kts
04-Aug-18 19:27 44.841647 -122.684360 2 13693ft 342kts
04-Aug-18 19:28 44.934206 -122.675056 2 12243ft 323kts
04-Aug-18 19:29 45.019945 -122.666423 2 11077ft 303kts
04-Aug-18 19:30 45.100026 -122.658260 2 9631ft 299kts
04-Aug-18 19:31 45.174254 -122.650680 2 8326ft 291kts
04-Aug-18 19:32 45.251540 -122.639721 22 6970ft 285kts
04-Aug-18 19:33 45.314349 -122.584566 31 5650ft 279kts
04-Aug-18 19:34 45.374118 -122.530847 30 5148ft 246kts
04-Aug-18 19:35 45.428703 -122.481693 31 3904ft 234kts
04-Aug-18 19:36 45.478681 -122.437185 31 3044ft 204kts
04-Aug-18 19:37 45.528413 -122.417007 321 3038ft 206kts
04-Aug-18 19:38 45.551395 -122.485184 280 2008ft 209kts
04-Aug-18 19:39 45.568748 -122.554747 303 610ft 164kts
04-Aug-18 19:40 45.585535 -122.596627 299 38ft 20kts
04-Aug-18 19:41 45.588228 -122.596498 36 38ft 7kts
04-Aug-18 19:42 45.588391 -122.596302 40 38ft 0kts
04-Aug-18 19:43 45.588390 -122.596303 40 38ft 0kts
04-Aug-18 19:44 45.588390 -122.596303 40 38ft 0kts
04-Aug-18 19:45 45.588390 -122.596303 40 38ft 0kts

Navigation Log

Ident Type
Flight plan parsing failed, navigation log unavailable